sensor_id;sensor_type;location;lat;lon;timestamp;P1;durP1;ratioP1;P2;durP2;ratioP2
26622;SDS011;14254;50.968;5.366;2023-08-08T00:00:37;5.38;;;3.50;;
26622;SDS011;14254;50.968;5.366;2023-08-08T00:03:03;7.15;;;2.90;;
26622;SDS011;14254;50.968;5.366;2023-08-08T00:05:28;6.18;;;3.53;;
26622;SDS011;14254;50.968;5.366;2023-08-08T00:07:54;10.05;;;3.92;;
26622;SDS011;14254;50.968;5.366;2023-08-08T00:10:20;5.03;;;3.20;;
26622;SDS011;14254;50.968;5.366;2023-08-08T00:12:45;7.55;;;3.50;;
26622;SDS011;14254;50.968;5.366;2023-08-08T00:15:11;5.40;;;3.50;;
26622;SDS011;14254;50.968;5.366;2023-08-08T00:17:37;4.93;;;3.15;;
26622;SDS011;14254;50.968;5.366;2023-08-08T00:20:02;6.68;;;3.17;;
26622;SDS011;14254;50.968;5.366;2023-08-08T00:22:28;6.20;;;3.40;;
26622;SDS011;14254;50.968;5.366;2023-08-08T00:24:54;5.95;;;3.20;;
26622;SDS011;14254;50.968;5.366;2023-08-08T00:27:20;12.20;;;3.35;;
26622;SDS011;14254;50.968;5.366;2023-08-08T00:29:46;6.25;;;3.03;;
26622;SDS011;14254;50.968;5.366;2023-08-08T00:32:11;6.07;;;3.30;;
26622;SDS011;14254;50.968;5.366;2023-08-08T00:34:37;4.47;;;3.20;;
26622;SDS011;14254;50.968;5.366;2023-08-08T00:37:03;8.13;;;3.13;;
26622;SDS011;14254;50.968;5.366;2023-08-08T00:39:28;5.03;;;3.63;;
26622;SDS011;14254;50.968;5.366;2023-08-08T00:41:54;11.18;;;3.10;;
26622;SDS011;14254;50.968;5.366;2023-08-08T00:44:20;6.97;;;3.25;;
26622;SDS011;14254;50.968;5.366;2023-08-08T00:46:45;7.20;;;3.40;;
26622;SDS011;14254;50.968;5.366;2023-08-08T00:49:11;6.90;;;3.50;;
26622;SDS011;14254;50.968;5.366;2023-08-08T00:51:37;4.22;;;3.50;;
26622;SDS011;14254;50.968;5.366;2023-08-08T00:54:03;6.85;;;3.20;;
26622;SDS011;14254;50.968;5.366;2023-08-08T00:56:29;8.75;;;3.08;;
26622;SDS011;14254;50.968;5.366;2023-08-08T00:58:55;8.00;;;4.63;;
26622;SDS011;14254;50.968;5.366;2023-08-08T01:01:21;8.73;;;3.10;;
26622;SDS011;14254;50.968;5.366;2023-08-08T01:03:47;13.45;;;3.67;;
26622;SDS011;14254;50.968;5.366;2023-08-08T01:06:16;9.13;;;3.42;;
26622;SDS011;14254;50.968;5.366;2023-08-08T01:11:53;6.40;;;3.13;;
26622;SDS011;14254;50.968;5.366;2023-08-08T01:14:19;7.57;;;3.25;;
26622;SDS011;14254;50.968;5.366;2023-08-08T01:16:49;11.82;;;3.58;;
26622;SDS011;14254;50.968;5.366;2023-08-08T01:19:18;4.78;;;2.97;;
26622;SDS011;14254;50.968;5.366;2023-08-08T01:21:50;9.23;;;2.88;;
26622;SDS011;14254;50.968;5.366;2023-08-08T01:24:22;7.55;;;2.90;;
26622;SDS011;14254;50.968;5.366;2023-08-08T01:29:16;5.55;;;3.38;;
26622;SDS011;14254;50.968;5.366;2023-08-08T01:31:42;4.97;;;3.35;;
26622;SDS011;14254;50.968;5.366;2023-08-08T01:34:07;5.07;;;3.30;;
26622;SDS011;14254;50.968;5.366;2023-08-08T01:36:54;7.40;;;3.83;;
26622;SDS011;14254;50.968;5.366;2023-08-08T01:39:27;7.15;;;3.28;;
26622;SDS011;14254;50.968;5.366;2023-08-08T01:41:55;7.75;;;3.25;;
26622;SDS011;14254;50.968;5.366;2023-08-08T01:44:21;5.45;;;3.33;;
26622;SDS011;14254;50.968;5.366;2023-08-08T01:46:51;8.20;;;3.90;;
26622;SDS011;14254;50.968;5.366;2023-08-08T01:49:17;7.85;;;3.65;;
26622;SDS011;14254;50.968;5.366;2023-08-08T01:51:43;6.72;;;3.80;;
26622;SDS011;14254;50.968;5.366;2023-08-08T01:54:09;11.60;;;4.10;;
26622;SDS011;14254;50.968;5.366;2023-08-08T01:56:34;11.35;;;3.80;;
26622;SDS011;14254;50.968;5.366;2023-08-08T01:59:00;12.48;;;4.10;;
26622;SDS011;14254;50.968;5.366;2023-08-08T02:01:26;13.32;;;4.32;;
26622;SDS011;14254;50.968;5.366;2023-08-08T02:03:52;8.98;;;4.20;;
26622;SDS011;14254;50.968;5.366;2023-08-08T02:06:17;7.05;;;4.13;;
26622;SDS011;14254;50.968;5.366;2023-08-08T02:08:43;14.88;;;4.10;;
26622;SDS011;14254;50.968;5.366;2023-08-08T02:11:09;8.57;;;4.63;;
26622;SDS011;14254;50.968;5.366;2023-08-08T02:13:35;8.60;;;4.20;;
26622;SDS011;14254;50.968;5.366;2023-08-08T02:16:01;9.00;;;4.60;;
26622;SDS011;14254;50.968;5.366;2023-08-08T02:18:26;11.82;;;4.15;;
26622;SDS011;14254;50.968;5.366;2023-08-08T02:20:52;11.00;;;4.10;;
26622;SDS011;14254;50.968;5.366;2023-08-08T02:23:17;11.35;;;4.43;;
26622;SDS011;14254;50.968;5.366;2023-08-08T02:25:43;7.00;;;3.63;;
26622;SDS011;14254;50.968;5.366;2023-08-08T02:28:09;6.60;;;4.28;;
26622;SDS011;14254;50.968;5.366;2023-08-08T02:30:34;8.45;;;3.70;;
26622;SDS011;14254;50.968;5.366;2023-08-08T02:33:00;13.98;;;4.05;;
26622;SDS011;14254;50.968;5.366;2023-08-08T02:35:26;16.33;;;4.40;;
26622;SDS011;14254;50.968;5.366;2023-08-08T02:37:51;9.88;;;4.13;;
26622;SDS011;14254;50.968;5.366;2023-08-08T02:40:17;10.60;;;4.88;;
26622;SDS011;14254;50.968;5.366;2023-08-08T02:42:43;12.18;;;4.50;;
26622;SDS011;14254;50.968;5.366;2023-08-08T02:45:09;17.67;;;4.45;;
26622;SDS011;14254;50.968;5.366;2023-08-08T02:47:34;8.60;;;4.22;;
26622;SDS011;14254;50.968;5.366;2023-08-08T02:50:00;7.93;;;3.75;;
26622;SDS011;14254;50.968;5.366;2023-08-08T02:52:26;16.58;;;4.38;;
26622;SDS011;14254;50.968;5.366;2023-08-08T02:54:52;6.88;;;4.32;;
26622;SDS011;14254;50.968;5.366;2023-08-08T02:57:18;9.85;;;4.18;;
26622;SDS011;14254;50.968;5.366;2023-08-08T02:59:43;13.15;;;5.07;;
26622;SDS011;14254;50.968;5.366;2023-08-08T03:02:09;11.55;;;4.55;;
26622;SDS011;14254;50.968;5.366;2023-08-08T03:04:35;15.20;;;4.68;;
26622;SDS011;14254;50.968;5.366;2023-08-08T03:07:00;11.27;;;5.05;;
26622;SDS011;14254;50.968;5.366;2023-08-08T03:09:29;18.73;;;5.40;;
26622;SDS011;14254;50.968;5.366;2023-08-08T03:11:55;9.43;;;5.18;;
26622;SDS011;14254;50.968;5.366;2023-08-08T03:14:20;10.63;;;4.90;;
26622;SDS011;14254;50.968;5.366;2023-08-08T03:16:46;17.65;;;4.90;;
26622;SDS011;14254;50.968;5.366;2023-08-08T03:19:12;11.10;;;5.05;;
26622;SDS011;14254;50.968;5.366;2023-08-08T03:21:37;10.07;;;4.97;;
26622;SDS011;14254;50.968;5.366;2023-08-08T03:24:03;11.80;;;4.97;;
26622;SDS011;14254;50.968;5.366;2023-08-08T03:26:29;12.35;;;4.82;;
26622;SDS011;14254;50.968;5.366;2023-08-08T03:28:55;17.83;;;5.47;;
26622;SDS011;14254;50.968;5.366;2023-08-08T03:31:20;14.10;;;5.38;;
26622;SDS011;14254;50.968;5.366;2023-08-08T03:33:46;9.63;;;5.10;;
26622;SDS011;14254;50.968;5.366;2023-08-08T03:36:12;12.95;;;5.15;;
26622;SDS011;14254;50.968;5.366;2023-08-08T03:38:38;19.15;;;6.85;;
26622;SDS011;14254;50.968;5.366;2023-08-08T03:41:05;19.90;;;5.47;;
26622;SDS011;14254;50.968;5.366;2023-08-08T03:43:31;13.23;;;5.80;;
26622;SDS011;14254;50.968;5.366;2023-08-08T03:45:56;11.55;;;5.22;;
26622;SDS011;14254;50.968;5.366;2023-08-08T03:48:22;21.15;;;5.45;;
26622;SDS011;14254;50.968;5.366;2023-08-08T03:50:48;17.65;;;5.50;;
26622;SDS011;14254;50.968;5.366;2023-08-08T03:53:13;16.42;;;4.93;;
26622;SDS011;14254;50.968;5.366;2023-08-08T03:55:39;15.27;;;6.03;;
26622;SDS011;14254;50.968;5.366;2023-08-08T03:58:05;18.38;;;7.55;;
26622;SDS011;14254;50.968;5.366;2023-08-08T04:00:31;10.70;;;5.45;;
26622;SDS011;14254;50.968;5.366;2023-08-08T04:02:57;19.17;;;5.88;;
26622;SDS011;14254;50.968;5.366;2023-08-08T04:05:22;11.55;;;5.60;;
26622;SDS011;14254;50.968;5.366;2023-08-08T04:07:48;18.38;;;5.95;;
26622;SDS011;14254;50.968;5.366;2023-08-08T04:10:14;17.48;;;5.72;;
26622;SDS011;14254;50.968;5.366;2023-08-08T04:12:40;13.55;;;6.00;;
26622;SDS011;14254;50.968;5.366;2023-08-08T04:15:05;15.18;;;5.53;;
26622;SDS011;14254;50.968;5.366;2023-08-08T04:17:31;12.85;;;4.30;;
26622;SDS011;14254;50.968;5.366;2023-08-08T04:19:57;15.40;;;5.43;;
26622;SDS011;14254;50.968;5.366;2023-08-08T04:22:23;19.38;;;5.45;;
26622;SDS011;14254;50.968;5.366;2023-08-08T04:24:48;13.73;;;5.55;;
26622;SDS011;14254;50.968;5.366;2023-08-08T04:27:14;16.77;;;5.80;;
26622;SDS011;14254;50.968;5.366;2023-08-08T04:29:40;14.35;;;5.78;;
26622;SDS011;14254;50.968;5.366;2023-08-08T04:32:05;16.05;;;6.10;;
26622;SDS011;14254;50.968;5.366;2023-08-08T04:34:40;20.02;;;5.93;;
26622;SDS011;14254;50.968;5.366;2023-08-08T04:37:06;15.20;;;5.82;;
26622;SDS011;14254;50.968;5.366;2023-08-08T04:39:32;13.27;;;5.38;;
26622;SDS011;14254;50.968;5.366;2023-08-08T04:41:57;16.13;;;5.10;;
26622;SDS011;14254;50.968;5.366;2023-08-08T04:44:23;12.02;;;4.93;;
26622;SDS011;14254;50.968;5.366;2023-08-08T04:46:48;12.98;;;5.65;;
26622;SDS011;14254;50.968;5.366;2023-08-08T04:49:14;20.02;;;6.60;;
26622;SDS011;14254;50.968;5.366;2023-08-08T04:51:40;19.58;;;8.07;;
26622;SDS011;14254;50.968;5.366;2023-08-08T04:54:05;17.10;;;5.65;;
26622;SDS011;14254;50.968;5.366;2023-08-08T04:56:31;25.55;;;6.40;;
26622;SDS011;14254;50.968;5.366;2023-08-08T04:58:57;16.02;;;5.80;;
26622;SDS011;14254;50.968;5.366;2023-08-08T05:01:22;15.10;;;5.72;;
26622;SDS011;14254;50.968;5.366;2023-08-08T05:03:48;9.70;;;6.22;;
26622;SDS011;14254;50.968;5.366;2023-08-08T05:06:14;17.92;;;6.43;;
26622;SDS011;14254;50.968;5.366;2023-08-08T05:08:40;12.90;;;5.10;;
26622;SDS011;14254;50.968;5.366;2023-08-08T05:11:06;15.30;;;5.13;;
26622;SDS011;14254;50.968;5.366;2023-08-08T05:13:31;16.98;;;6.25;;
26622;SDS011;14254;50.968;5.366;2023-08-08T05:15:57;19.13;;;6.28;;
26622;SDS011;14254;50.968;5.366;2023-08-08T05:18:22;20.52;;;6.75;;
26622;SDS011;14254;50.968;5.366;2023-08-08T05:20:48;15.43;;;6.18;;
26622;SDS011;14254;50.968;5.366;2023-08-08T05:23:14;20.60;;;6.38;;
26622;SDS011;14254;50.968;5.366;2023-08-08T05:25:40;19.02;;;6.68;;
26622;SDS011;14254;50.968;5.366;2023-08-08T05:28:05;20.58;;;5.93;;
26622;SDS011;14254;50.968;5.366;2023-08-08T05:30:31;18.67;;;6.18;;
26622;SDS011;14254;50.968;5.366;2023-08-08T05:32:57;19.50;;;6.38;;
26622;SDS011;14254;50.968;5.366;2023-08-08T05:35:22;14.52;;;6.53;;
26622;SDS011;14254;50.968;5.366;2023-08-08T05:37:48;17.48;;;6.65;;
26622;SDS011;14254;50.968;5.366;2023-08-08T05:40:14;21.27;;;8.07;;
26622;SDS011;14254;50.968;5.366;2023-08-08T05:42:39;17.58;;;7.45;;
26622;SDS011;14254;50.968;5.366;2023-08-08T05:45:05;19.58;;;7.22;;
26622;SDS011;14254;50.968;5.366;2023-08-08T05:47:32;14.77;;;6.50;;
26622;SDS011;14254;50.968;5.366;2023-08-08T05:49:57;19.55;;;7.10;;
26622;SDS011;14254;50.968;5.366;2023-08-08T05:52:23;15.43;;;6.78;;
26622;SDS011;14254;50.968;5.366;2023-08-08T05:54:49;12.27;;;6.13;;
26622;SDS011;14254;50.968;5.366;2023-08-08T05:57:14;23.70;;;7.75;;
26622;SDS011;14254;50.968;5.366;2023-08-08T05:59:40;19.63;;;6.40;;
26622;SDS011;14254;50.968;5.366;2023-08-08T06:02:06;20.33;;;7.35;;
26622;SDS011;14254;50.968;5.366;2023-08-08T06:04:31;19.58;;;6.93;;
26622;SDS011;14254;50.968;5.366;2023-08-08T06:06:57;18.33;;;6.40;;
26622;SDS011;14254;50.968;5.366;2023-08-08T06:09:23;22.10;;;6.38;;
26622;SDS011;14254;50.968;5.366;2023-08-08T06:11:49;14.27;;;6.40;;
26622;SDS011;14254;50.968;5.366;2023-08-08T06:14:15;17.52;;;6.85;;
26622;SDS011;14254;50.968;5.366;2023-08-08T06:16:42;18.05;;;6.82;;
26622;SDS011;14254;50.968;5.366;2023-08-08T06:19:07;17.52;;;6.75;;
26622;SDS011;14254;50.968;5.366;2023-08-08T06:21:33;17.88;;;6.32;;
26622;SDS011;14254;50.968;5.366;2023-08-08T06:24:00;20.33;;;7.25;;
26622;SDS011;14254;50.968;5.366;2023-08-08T06:26:26;16.73;;;7.38;;
26622;SDS011;14254;50.968;5.366;2023-08-08T06:28:51;17.27;;;6.07;;
26622;SDS011;14254;50.968;5.366;2023-08-08T06:31:17;21.98;;;6.50;;
26622;SDS011;14254;50.968;5.366;2023-08-08T06:33:44;20.45;;;7.00;;
26622;SDS011;14254;50.968;5.366;2023-08-08T06:36:09;14.43;;;5.88;;
26622;SDS011;14254;50.968;5.366;2023-08-08T06:38:35;28.45;;;6.82;;
26622;SDS011;14254;50.968;5.366;2023-08-08T06:41:02;10.98;;;5.53;;
26622;SDS011;14254;50.968;5.366;2023-08-08T06:43:28;18.98;;;5.65;;
26622;SDS011;14254;50.968;5.366;2023-08-08T06:45:55;10.93;;;5.70;;
26622;SDS011;14254;50.968;5.366;2023-08-08T06:48:21;12.30;;;5.25;;
26622;SDS011;14254;50.968;5.366;2023-08-08T06:50:46;20.75;;;5.57;;
26622;SDS011;14254;50.968;5.366;2023-08-08T06:53:12;16.23;;;5.32;;
26622;SDS011;14254;50.968;5.366;2023-08-08T06:55:38;10.80;;;5.32;;
26622;SDS011;14254;50.968;5.366;2023-08-08T06:58:03;12.43;;;4.80;;
26622;SDS011;14254;50.968;5.366;2023-08-08T07:00:29;13.95;;;5.32;;
26622;SDS011;14254;50.968;5.366;2023-08-08T07:02:55;14.68;;;4.75;;
26622;SDS011;14254;50.968;5.366;2023-08-08T07:05:21;17.15;;;5.50;;
26622;SDS011;14254;50.968;5.366;2023-08-08T07:07:50;14.45;;;5.45;;
26622;SDS011;14254;50.968;5.366;2023-08-08T07:10:17;11.75;;;5.32;;
26622;SDS011;14254;50.968;5.366;2023-08-08T07:12:43;16.83;;;5.28;;
26622;SDS011;14254;50.968;5.366;2023-08-08T07:15:09;13.52;;;4.55;;
26622;SDS011;14254;50.968;5.366;2023-08-08T07:17:35;12.30;;;4.32;;
26622;SDS011;14254;50.968;5.366;2023-08-08T07:20:01;15.23;;;4.40;;
26622;SDS011;14254;50.968;5.366;2023-08-08T07:22:27;15.77;;;4.15;;
26622;SDS011;14254;50.968;5.366;2023-08-08T07:24:53;19.70;;;5.82;;
26622;SDS011;14254;50.968;5.366;2023-08-08T07:27:19;14.20;;;3.88;;
26622;SDS011;14254;50.968;5.366;2023-08-08T07:29:44;12.32;;;3.90;;
26622;SDS011;14254;50.968;5.366;2023-08-08T07:32:10;14.10;;;3.85;;
26622;SDS011;14254;50.968;5.366;2023-08-08T07:34:36;19.92;;;4.43;;
26622;SDS011;14254;50.968;5.366;2023-08-08T07:37:01;18.05;;;5.10;;
26622;SDS011;14254;50.968;5.366;2023-08-08T07:39:28;14.05;;;4.00;;
26622;SDS011;14254;50.968;5.366;2023-08-08T07:41:53;11.43;;;4.10;;
26622;SDS011;14254;50.968;5.366;2023-08-08T07:44:19;8.75;;;3.88;;
26622;SDS011;14254;50.968;5.366;2023-08-08T07:46:45;13.98;;;4.80;;
26622;SDS011;14254;50.968;5.366;2023-08-08T07:49:11;16.13;;;4.95;;
26622;SDS011;14254;50.968;5.366;2023-08-08T07:51:36;17.73;;;5.15;;
26622;SDS011;14254;50.968;5.366;2023-08-08T07:54:02;10.48;;;3.40;;
26622;SDS011;14254;50.968;5.366;2023-08-08T07:56:30;10.90;;;3.45;;
26622;SDS011;14254;50.968;5.366;2023-08-08T07:58:56;11.80;;;4.07;;
26622;SDS011;14254;50.968;5.366;2023-08-08T08:01:21;15.35;;;4.85;;
26622;SDS011;14254;50.968;5.366;2023-08-08T08:03:48;19.17;;;4.20;;
26622;SDS011;14254;50.968;5.366;2023-08-08T08:06:13;11.43;;;3.97;;
26622;SDS011;14254;50.968;5.366;2023-08-08T08:08:39;12.20;;;4.25;;
26622;SDS011;14254;50.968;5.366;2023-08-08T08:11:05;10.57;;;3.40;;
26622;SDS011;14254;50.968;5.366;2023-08-08T08:13:30;10.52;;;3.38;;
26622;SDS011;14254;50.968;5.366;2023-08-08T08:15:56;8.60;;;3.88;;
26622;SDS011;14254;50.968;5.366;2023-08-08T08:18:23;16.60;;;4.95;;
26622;SDS011;14254;50.968;5.366;2023-08-08T08:20:48;14.18;;;5.05;;
26622;SDS011;14254;50.968;5.366;2023-08-08T08:23:14;14.65;;;3.95;;
26622;SDS011;14254;50.968;5.366;2023-08-08T08:25:40;10.90;;;3.85;;
26622;SDS011;14254;50.968;5.366;2023-08-08T08:28:06;15.43;;;4.22;;
26622;SDS011;14254;50.968;5.366;2023-08-08T08:30:32;5.03;;;2.85;;
26622;SDS011;14254;50.968;5.366;2023-08-08T08:32:58;12.15;;;3.88;;
26622;SDS011;14254;50.968;5.366;2023-08-08T08:35:25;17.75;;;3.70;;
26622;SDS011;14254;50.968;5.366;2023-08-08T08:37:51;9.65;;;3.55;;
26622;SDS011;14254;50.968;5.366;2023-08-08T08:40:17;10.50;;;4.05;;
26622;SDS011;14254;50.968;5.366;2023-08-08T08:42:42;9.75;;;3.65;;
26622;SDS011;14254;50.968;5.366;2023-08-08T08:45:10;13.02;;;3.30;;
26622;SDS011;14254;50.968;5.366;2023-08-08T08:47:37;8.93;;;3.72;;
26622;SDS011;14254;50.968;5.366;2023-08-08T08:50:07;10.30;;;3.75;;
26622;SDS011;14254;50.968;5.366;2023-08-08T08:52:33;10.35;;;3.40;;
26622;SDS011;14254;50.968;5.366;2023-08-08T08:54:59;12.77;;;3.50;;
26622;SDS011;14254;50.968;5.366;2023-08-08T08:57:25;8.98;;;3.40;;
26622;SDS011;14254;50.968;5.366;2023-08-08T08:59:51;14.38;;;3.47;;
26622;SDS011;14254;50.968;5.366;2023-08-08T09:02:20;10.40;;;2.95;;
26622;SDS011;14254;50.968;5.366;2023-08-08T09:04:46;14.82;;;3.70;;
26622;SDS011;14254;50.968;5.366;2023-08-08T09:07:12;14.65;;;3.03;;
26622;SDS011;14254;50.968;5.366;2023-08-08T09:09:41;11.63;;;3.35;;
26622;SDS011;14254;50.968;5.366;2023-08-08T09:12:08;11.93;;;3.65;;
26622;SDS011;14254;50.968;5.366;2023-08-08T09:14:33;11.98;;;2.70;;
26622;SDS011;14254;50.968;5.366;2023-08-08T09:17:03;10.40;;;3.88;;
26622;SDS011;14254;50.968;5.366;2023-08-08T09:19:34;14.90;;;4.03;;
26622;SDS011;14254;50.968;5.366;2023-08-08T09:22:01;8.23;;;3.58;;
26622;SDS011;14254;50.968;5.366;2023-08-08T09:24:26;13.57;;;4.25;;
26622;SDS011;14254;50.968;5.366;2023-08-08T09:26:52;6.00;;;3.53;;
26622;SDS011;14254;50.968;5.366;2023-08-08T09:29:18;11.75;;;3.95;;
26622;SDS011;14254;50.968;5.366;2023-08-08T09:31:45;7.20;;;4.35;;
26622;SDS011;14254;50.968;5.366;2023-08-08T09:34:12;14.57;;;3.78;;
26622;SDS011;14254;50.968;5.366;2023-08-08T09:36:38;11.07;;;3.92;;
26622;SDS011;14254;50.968;5.366;2023-08-08T09:39:03;7.60;;;3.50;;
26622;SDS011;14254;50.968;5.366;2023-08-08T09:41:29;11.98;;;3.45;;
26622;SDS011;14254;50.968;5.366;2023-08-08T09:43:55;9.65;;;3.88;;
26622;SDS011;14254;50.968;5.366;2023-08-08T09:46:23;9.05;;;3.58;;
26622;SDS011;14254;50.968;5.366;2023-08-08T09:48:49;8.55;;;3.05;;
26622;SDS011;14254;50.968;5.366;2023-08-08T09:51:16;8.85;;;2.85;;
26622;SDS011;14254;50.968;5.366;2023-08-08T09:53:42;12.02;;;3.38;;
26622;SDS011;14254;50.968;5.366;2023-08-08T09:56:09;8.15;;;3.08;;
26622;SDS011;14254;50.968;5.366;2023-08-08T09:58:35;8.85;;;2.88;;
26622;SDS011;14254;50.968;5.366;2023-08-08T10:01:01;7.93;;;3.03;;
26622;SDS011;14254;50.968;5.366;2023-08-08T10:03:29;13.35;;;2.80;;
26622;SDS011;14254;50.968;5.366;2023-08-08T10:05:56;7.05;;;2.50;;
26622;SDS011;14254;50.968;5.366;2023-08-08T10:08:21;8.73;;;3.22;;
26622;SDS011;14254;50.968;5.366;2023-08-08T10:10:49;9.63;;;2.90;;
26622;SDS011;14254;50.968;5.366;2023-08-08T10:13:22;13.48;;;3.13;;
26622;SDS011;14254;50.968;5.366;2023-08-08T10:15:49;8.90;;;2.95;;
26622;SDS011;14254;50.968;5.366;2023-08-08T10:18:16;6.10;;;2.40;;
26622;SDS011;14254;50.968;5.366;2023-08-08T10:20:43;11.00;;;3.70;;
26622;SDS011;14254;50.968;5.366;2023-08-08T10:23:14;5.70;;;2.72;;
26622;SDS011;14254;50.968;5.366;2023-08-08T10:25:43;5.60;;;2.63;;
26622;SDS011;14254;50.968;5.366;2023-08-08T10:28:11;7.90;;;2.72;;
26622;SDS011;14254;50.968;5.366;2023-08-08T10:34:00;6.90;;;2.70;;
26622;SDS011;14254;50.968;5.366;2023-08-08T10:36:08;8.25;;;2.88;;
26622;SDS011;14254;50.968;5.366;2023-08-08T10:38:44;6.32;;;2.88;;
26622;SDS011;14254;50.968;5.366;2023-08-08T10:41:15;7.43;;;2.10;;
26622;SDS011;14254;50.968;5.366;2023-08-08T10:43:47;7.40;;;2.53;;
26622;SDS011;14254;50.968;5.366;2023-08-08T10:46:25;7.78;;;2.97;;
26622;SDS011;14254;50.968;5.366;2023-08-08T10:48:56;9.68;;;2.47;;
26622;SDS011;14254;50.968;5.366;2023-08-08T10:51:46;12.57;;;3.28;;
26622;SDS011;14254;50.968;5.366;2023-08-08T10:54:22;8.68;;;2.60;;
26622;SDS011;14254;50.968;5.366;2023-08-08T10:56:56;11.27;;;2.88;;
26622;SDS011;14254;50.968;5.366;2023-08-08T10:59:38;10.85;;;2.58;;
26622;SDS011;14254;50.968;5.366;2023-08-08T11:02:04;6.35;;;2.67;;
26622;SDS011;14254;50.968;5.366;2023-08-08T11:04:30;8.70;;;2.30;;
26622;SDS011;14254;50.968;5.366;2023-08-08T11:06:57;9.05;;;2.70;;
26622;SDS011;14254;50.968;5.366;2023-08-08T11:09:23;9.95;;;3.25;;
26622;SDS011;14254;50.968;5.366;2023-08-08T11:11:51;7.18;;;2.10;;
26622;SDS011;14254;50.968;5.366;2023-08-08T11:14:19;5.80;;;2.45;;
26622;SDS011;14254;50.968;5.366;2023-08-08T11:16:47;12.18;;;2.90;;
26622;SDS011;14254;50.968;5.366;2023-08-08T11:19:14;9.70;;;2.17;;
26622;SDS011;14254;50.968;5.366;2023-08-08T11:21:48;6.72;;;2.42;;
26622;SDS011;14254;50.968;5.366;2023-08-08T11:24:14;5.95;;;2.40;;
26622;SDS011;14254;50.968;5.366;2023-08-08T11:26:41;6.03;;;2.15;;
26622;SDS011;14254;50.968;5.366;2023-08-08T11:29:10;7.45;;;2.15;;
26622;SDS011;14254;50.968;5.366;2023-08-08T11:31:36;8.80;;;2.28;;
26622;SDS011;14254;50.968;5.366;2023-08-08T11:34:03;9.38;;;2.28;;
26622;SDS011;14254;50.968;5.366;2023-08-08T11:36:30;5.43;;;2.15;;
26622;SDS011;14254;50.968;5.366;2023-08-08T11:38:57;9.68;;;2.72;;
26622;SDS011;14254;50.968;5.366;2023-08-08T11:41:28;6.28;;;2.35;;
26622;SDS011;14254;50.968;5.366;2023-08-08T11:43:54;6.60;;;2.75;;
26622;SDS011;14254;50.968;5.366;2023-08-08T11:46:23;7.65;;;2.50;;
26622;SDS011;14254;50.968;5.366;2023-08-08T11:48:50;7.18;;;2.60;;
26622;SDS011;14254;50.968;5.366;2023-08-08T11:51:16;8.70;;;2.95;;
26622;SDS011;14254;50.968;5.366;2023-08-08T11:53:49;9.50;;;2.97;;
26622;SDS011;14254;50.968;5.366;2023-08-08T11:56:17;7.05;;;2.50;;
26622;SDS011;14254;50.968;5.366;2023-08-08T11:58:44;10.43;;;2.70;;
26622;SDS011;14254;50.968;5.366;2023-08-08T12:01:10;7.57;;;2.30;;
26622;SDS011;14254;50.968;5.366;2023-08-08T12:03:39;8.23;;;2.85;;
26622;SDS011;14254;50.968;5.366;2023-08-08T12:06:38;5.68;;;2.65;;
26622;SDS011;14254;50.968;5.366;2023-08-08T12:08:56;7.97;;;2.67;;
26622;SDS011;14254;50.968;5.366;2023-08-08T12:11:22;9.88;;;2.88;;
26622;SDS011;14254;50.968;5.366;2023-08-08T12:13:48;7.70;;;2.65;;
26622;SDS011;14254;50.968;5.366;2023-08-08T12:16:14;8.88;;;2.47;;
26622;SDS011;14254;50.968;5.366;2023-08-08T12:18:40;5.53;;;2.22;;
26622;SDS011;14254;50.968;5.366;2023-08-08T12:21:06;6.72;;;2.40;;
26622;SDS011;14254;50.968;5.366;2023-08-08T12:23:34;7.50;;;2.75;;
26622;SDS011;14254;50.968;5.366;2023-08-08T12:26:02;4.88;;;2.17;;
26622;SDS011;14254;50.968;5.366;2023-08-08T12:28:30;7.50;;;2.65;;
26622;SDS011;14254;50.968;5.366;2023-08-08T12:30:56;5.43;;;2.13;;
26622;SDS011;14254;50.968;5.366;2023-08-08T12:33:22;4.10;;;1.63;;
26622;SDS011;14254;50.968;5.366;2023-08-08T12:35:47;7.88;;;2.92;;
26622;SDS011;14254;50.968;5.366;2023-08-08T12:38:14;5.85;;;2.53;;
26622;SDS011;14254;50.968;5.366;2023-08-08T12:40:39;6.72;;;2.30;;
26622;SDS011;14254;50.968;5.366;2023-08-08T12:43:05;3.80;;;1.83;;
26622;SDS011;14254;50.968;5.366;2023-08-08T12:45:31;2.67;;;1.60;;
26622;SDS011;14254;50.968;5.366;2023-08-08T12:47:57;2.75;;;1.90;;
26622;SDS011;14254;50.968;5.366;2023-08-08T12:50:23;6.40;;;1.88;;
26622;SDS011;14254;50.968;5.366;2023-08-08T12:52:49;8.23;;;2.58;;
26622;SDS011;14254;50.968;5.366;2023-08-08T12:55:15;8.25;;;2.13;;
26622;SDS011;14254;50.968;5.366;2023-08-08T12:57:43;4.93;;;1.90;;
26622;SDS011;14254;50.968;5.366;2023-08-08T13:00:09;5.85;;;1.80;;
26622;SDS011;14254;50.968;5.366;2023-08-08T13:02:36;5.53;;;1.70;;
26622;SDS011;14254;50.968;5.366;2023-08-08T13:05:03;9.93;;;2.22;;
26622;SDS011;14254;50.968;5.366;2023-08-08T13:07:29;4.68;;;1.85;;
26622;SDS011;14254;50.968;5.366;2023-08-08T13:09:55;6.03;;;2.30;;
26622;SDS011;14254;50.968;5.366;2023-08-08T13:12:21;6.00;;;1.80;;
26622;SDS011;14254;50.968;5.366;2023-08-08T13:14:46;2.83;;;1.30;;
26622;SDS011;14254;50.968;5.366;2023-08-08T13:17:12;4.90;;;1.58;;
26622;SDS011;14254;50.968;5.366;2023-08-08T13:19:38;3.42;;;1.40;;
26622;SDS011;14254;50.968;5.366;2023-08-08T13:22:04;2.47;;;1.25;;
26622;SDS011;14254;50.968;5.366;2023-08-08T13:24:30;4.45;;;1.52;;
26622;SDS011;14254;50.968;5.366;2023-08-08T13:26:56;4.90;;;1.63;;
26622;SDS011;14254;50.968;5.366;2023-08-08T13:29:21;4.50;;;1.67;;
26622;SDS011;14254;50.968;5.366;2023-08-08T13:31:47;3.35;;;1.40;;
26622;SDS011;14254;50.968;5.366;2023-08-08T13:34:13;3.08;;;1.75;;
26622;SDS011;14254;50.968;5.366;2023-08-08T13:36:39;2.92;;;1.60;;
26622;SDS011;14254;50.968;5.366;2023-08-08T13:39:05;3.30;;;1.60;;
26622;SDS011;14254;50.968;5.366;2023-08-08T13:41:31;2.78;;;1.50;;
26622;SDS011;14254;50.968;5.366;2023-08-08T13:43:56;4.60;;;2.17;;
26622;SDS011;14254;50.968;5.366;2023-08-08T13:46:22;2.72;;;1.40;;
26622;SDS011;14254;50.968;5.366;2023-08-08T13:48:48;3.97;;;1.80;;
26622;SDS011;14254;50.968;5.366;2023-08-08T13:51:13;2.63;;;1.40;;
26622;SDS011;14254;50.968;5.366;2023-08-08T13:53:39;2.78;;;1.50;;
26622;SDS011;14254;50.968;5.366;2023-08-08T13:56:05;3.30;;;1.90;;
26622;SDS011;14254;50.968;5.366;2023-08-08T13:58:31;4.53;;;1.50;;
26622;SDS011;14254;50.968;5.366;2023-08-08T14:00:56;1.60;;;1.38;;
26622;SDS011;14254;50.968;5.366;2023-08-08T14:03:23;2.80;;;1.38;;
26622;SDS011;14254;50.968;5.366;2023-08-08T14:05:49;5.03;;;1.90;;
26622;SDS011;14254;50.968;5.366;2023-08-08T14:08:19;3.20;;;1.55;;
26622;SDS011;14254;50.968;5.366;2023-08-08T14:10:45;3.63;;;1.73;;
26622;SDS011;14254;50.968;5.366;2023-08-08T14:13:11;3.97;;;1.63;;
26622;SDS011;14254;50.968;5.366;2023-08-08T14:15:37;2.90;;;1.50;;
26622;SDS011;14254;50.968;5.366;2023-08-08T14:18:03;4.78;;;1.42;;
26622;SDS011;14254;50.968;5.366;2023-08-08T14:20:29;6.00;;;1.65;;
26622;SDS011;14254;50.968;5.366;2023-08-08T14:22:55;2.38;;;1.15;;
26622;SDS011;14254;50.968;5.366;2023-08-08T14:25:21;3.97;;;1.30;;
26622;SDS011;14254;50.968;5.366;2023-08-08T14:27:47;4.78;;;1.77;;
26622;SDS011;14254;50.968;5.366;2023-08-08T14:30:13;3.58;;;1.70;;
26622;SDS011;14254;50.968;5.366;2023-08-08T14:32:39;2.88;;;1.38;;
26622;SDS011;14254;50.968;5.366;2023-08-08T14:35:05;4.05;;;1.25;;
26622;SDS011;14254;50.968;5.366;2023-08-08T14:37:33;2.80;;;1.40;;
26622;SDS011;14254;50.968;5.366;2023-08-08T14:40:00;3.20;;;1.05;;
26622;SDS011;14254;50.968;5.366;2023-08-08T14:42:26;1.50;;;1.40;;
26622;SDS011;14254;50.968;5.366;2023-08-08T14:47:27;3.45;;;1.48;;